sensor_id;sensor_type;location;lat;lon;timestamp;temperature;humidity
16477;DHT22;8349;50.928;6.376;2023-06-22T00:00:09;21.80;99.90
16477;DHT22;8349;50.928;6.376;2023-06-22T00:02:38;21.80;99.90
16477;DHT22;8349;50.928;6.376;2023-06-22T00:05:06;21.80;99.90
16477;DHT22;8349;50.928;6.376;2023-06-22T00:07:33;21.70;99.90
16477;DHT22;8349;50.928;6.376;2023-06-22T00:09:59;21.80;99.90
16477;DHT22;8349;50.928;6.376;2023-06-22T00:12:26;21.70;99.90
16477;DHT22;8349;50.928;6.376;2023-06-22T00:14:52;21.70;99.90
16477;DHT22;8349;50.928;6.376;2023-06-22T00:17:19;21.70;99.90
16477;DHT22;8349;50.928;6.376;2023-06-22T00:19:46;21.70;99.90
16477;DHT22;8349;50.928;6.376;2023-06-22T00:22:14;21.70;99.90
16477;DHT22;8349;50.928;6.376;2023-06-22T00:24:42;21.60;99.90
16477;DHT22;8349;50.928;6.376;2023-06-22T00:27:09;21.70;99.90
16477;DHT22;8349;50.928;6.376;2023-06-22T00:29:36;21.60;99.90
16477;DHT22;8349;50.928;6.376;2023-06-22T00:32:03;21.60;99.90
16477;DHT22;8349;50.928;6.376;2023-06-22T00:34:30;21.60;99.90
16477;DHT22;8349;50.928;6.376;2023-06-22T00:36:59;21.60;99.90
16477;DHT22;8349;50.928;6.376;2023-06-22T00:39:27;21.60;99.90
16477;DHT22;8349;50.928;6.376;2023-06-22T00:41:54;21.60;99.90
16477;DHT22;8349;50.928;6.376;2023-06-22T00:44:21;21.60;99.90
16477;DHT22;8349;50.928;6.376;2023-06-22T00:46:54;21.60;99.90
16477;DHT22;8349;50.928;6.376;2023-06-22T00:49:21;21.60;99.90
16477;DHT22;8349;50.928;6.376;2023-06-22T00:51:48;21.60;99.90
16477;DHT22;8349;50.928;6.376;2023-06-22T00:54:15;21.60;99.90
16477;DHT22;8349;50.928;6.376;2023-06-22T00:56:51;21.60;99.90
16477;DHT22;8349;50.928;6.376;2023-06-22T00:59:20;21.50;99.90
16477;DHT22;8349;50.928;6.376;2023-06-22T01:01:47;21.50;99.90
16477;DHT22;8349;50.928;6.376;2023-06-22T01:04:14;21.50;99.90
16477;DHT22;8349;50.928;6.376;2023-06-22T01:06:47;21.50;99.90
16477;DHT22;8349;50.928;6.376;2023-06-22T01:09:19;21.50;99.90
16477;DHT22;8349;50.928;6.376;2023-06-22T01:11:50;21.40;99.90
16477;DHT22;8349;50.928;6.376;2023-06-22T01:14:21;21.40;99.90
16477;DHT22;8349;50.928;6.376;2023-06-22T01:16:49;21.40;99.90
16477;DHT22;8349;50.928;6.376;2023-06-22T01:19:27;21.40;99.90
16477;DHT22;8349;50.928;6.376;2023-06-22T01:21:55;21.40;99.90
16477;DHT22;8349;50.928;6.376;2023-06-22T01:24:23;21.40;99.90
16477;DHT22;8349;50.928;6.376;2023-06-22T01:26:54;21.40;99.90
16477;DHT22;8349;50.928;6.376;2023-06-22T01:29:25;21.40;99.90
16477;DHT22;8349;50.928;6.376;2023-06-22T01:31:54;21.40;99.90
16477;DHT22;8349;50.928;6.376;2023-06-22T01:34:23;21.40;99.90
16477;DHT22;8349;50.928;6.376;2023-06-22T01:36:50;21.40;99.90
16477;DHT22;8349;50.928;6.376;2023-06-22T01:39:17;21.40;99.90
16477;DHT22;8349;50.928;6.376;2023-06-22T01:41:44;21.30;99.90
16477;DHT22;8349;50.928;6.376;2023-06-22T01:44:14;21.30;99.90
16477;DHT22;8349;50.928;6.376;2023-06-22T01:46:43;21.20;99.90
16477;DHT22;8349;50.928;6.376;2023-06-22T01:49:10;21.20;99.90
16477;DHT22;8349;50.928;6.376;2023-06-22T01:51:57;21.20;99.90
16477;DHT22;8349;50.928;6.376;2023-06-22T01:54:24;21.20;99.90
16477;DHT22;8349;50.928;6.376;2023-06-22T01:56:51;21.10;99.90
16477;DHT22;8349;50.928;6.376;2023-06-22T01:59:19;21.20;99.90
16477;DHT22;8349;50.928;6.376;2023-06-22T02:01:52;21.20;99.90
16477;DHT22;8349;50.928;6.376;2023-06-22T02:04:21;21.20;99.90
16477;DHT22;8349;50.928;6.376;2023-06-22T02:06:51;21.20;99.90
16477;DHT22;8349;50.928;6.376;2023-06-22T02:09:21;21.10;99.90
16477;DHT22;8349;50.928;6.376;2023-06-22T02:11:49;21.10;99.90
16477;DHT22;8349;50.928;6.376;2023-06-22T02:14:19;21.10;99.90
16477;DHT22;8349;50.928;6.376;2023-06-22T02:16:46;21.00;99.90
16477;DHT22;8349;50.928;6.376;2023-06-22T02:19:14;21.00;99.90
16477;DHT22;8349;50.928;6.376;2023-06-22T02:21:44;21.00;99.90
16477;DHT22;8349;50.928;6.376;2023-06-22T02:24:12;21.00;99.90
16477;DHT22;8349;50.928;6.376;2023-06-22T02:26:39;20.90;99.90
16477;DHT22;8349;50.928;6.376;2023-06-22T02:29:07;20.90;99.90
16477;DHT22;8349;50.928;6.376;2023-06-22T02:31:34;20.90;99.90
16477;DHT22;8349;50.928;6.376;2023-06-22T02:34:01;20.90;99.90
16477;DHT22;8349;50.928;6.376;2023-06-22T02:36:29;20.90;99.90
16477;DHT22;8349;50.928;6.376;2023-06-22T02:39:00;20.90;99.90
16477;DHT22;8349;50.928;6.376;2023-06-22T02:41:29;20.90;99.90
16477;DHT22;8349;50.928;6.376;2023-06-22T02:43:58;20.90;99.90
16477;DHT22;8349;50.928;6.376;2023-06-22T02:46:25;20.90;99.90
16477;DHT22;8349;50.928;6.376;2023-06-22T02:48:52;20.90;99.90
16477;DHT22;8349;50.928;6.376;2023-06-22T02:51:19;20.90;99.90
16477;DHT22;8349;50.928;6.376;2023-06-22T02:53:47;20.90;99.90
16477;DHT22;8349;50.928;6.376;2023-06-22T02:56:22;20.90;99.90
16477;DHT22;8349;50.928;6.376;2023-06-22T02:58:53;20.90;99.90
16477;DHT22;8349;50.928;6.376;2023-06-22T03:01:20;20.90;99.90
16477;DHT22;8349;50.928;6.376;2023-06-22T03:03:49;20.90;99.90
16477;DHT22;8349;50.928;6.376;2023-06-22T03:06:17;20.90;99.90
16477;DHT22;8349;50.928;6.376;2023-06-22T03:08:50;20.90;99.90
16477;DHT22;8349;50.928;6.376;2023-06-22T03:11:17;20.90;99.90
16477;DHT22;8349;50.928;6.376;2023-06-22T03:13:44;20.90;99.90
16477;DHT22;8349;50.928;6.376;2023-06-22T03:16:12;20.90;99.90
16477;DHT22;8349;50.928;6.376;2023-06-22T03:18:38;20.80;99.90
16477;DHT22;8349;50.928;6.376;2023-06-22T03:21:05;20.80;99.90
16477;DHT22;8349;50.928;6.376;2023-06-22T03:23:32;20.70;99.90
16477;DHT22;8349;50.928;6.376;2023-06-22T03:26:00;20.70;99.90
16477;DHT22;8349;50.928;6.376;2023-06-22T03:28:28;20.60;99.90
16477;DHT22;8349;50.928;6.376;2023-06-22T03:30:56;20.70;99.90
16477;DHT22;8349;50.928;6.376;2023-06-22T03:33:23;20.70;99.90
16477;DHT22;8349;50.928;6.376;2023-06-22T03:35:50;20.60;99.90
16477;DHT22;8349;50.928;6.376;2023-06-22T03:38:17;20.60;99.90
16477;DHT22;8349;50.928;6.376;2023-06-22T03:40:44;20.50;99.90
16477;DHT22;8349;50.928;6.376;2023-06-22T03:43:12;20.50;99.90
16477;DHT22;8349;50.928;6.376;2023-06-22T03:45:39;20.50;99.90
16477;DHT22;8349;50.928;6.376;2023-06-22T03:48:06;20.60;99.90
16477;DHT22;8349;50.928;6.376;2023-06-22T03:50:33;20.60;99.90
16477;DHT22;8349;50.928;6.376;2023-06-22T03:53:00;20.60;99.90
16477;DHT22;8349;50.928;6.376;2023-06-22T03:55:27;20.60;99.90
16477;DHT22;8349;50.928;6.376;2023-06-22T03:57:54;20.60;99.90
16477;DHT22;8349;50.928;6.376;2023-06-22T04:00:23;20.60;99.90
16477;DHT22;8349;50.928;6.376;2023-06-22T04:02:50;20.70;99.90
16477;DHT22;8349;50.928;6.376;2023-06-22T04:05:17;20.70;99.90
16477;DHT22;8349;50.928;6.376;2023-06-22T04:07:44;20.70;99.90
16477;DHT22;8349;50.928;6.376;2023-06-22T04:10:11;20.70;99.90
16477;DHT22;8349;50.928;6.376;2023-06-22T04:12:38;20.70;99.90
16477;DHT22;8349;50.928;6.376;2023-06-22T04:15:05;20.70;99.90
16477;DHT22;8349;50.928;6.376;2023-06-22T04:17:33;20.60;99.90
16477;DHT22;8349;50.928;6.376;2023-06-22T04:20:00;20.60;99.90
16477;DHT22;8349;50.928;6.376;2023-06-22T04:22:27;20.60;99.90
16477;DHT22;8349;50.928;6.376;2023-06-22T04:24:54;20.60;99.90
16477;DHT22;8349;50.928;6.376;2023-06-22T04:27:21;20.60;99.90
16477;DHT22;8349;50.928;6.376;2023-06-22T04:29:48;20.60;99.90
16477;DHT22;8349;50.928;6.376;2023-06-22T04:32:16;20.60;99.90
16477;DHT22;8349;50.928;6.376;2023-06-22T04:34:45;20.60;99.90
16477;DHT22;8349;50.928;6.376;2023-06-22T04:37:11;20.60;99.90
16477;DHT22;8349;50.928;6.376;2023-06-22T04:39:41;20.60;99.90
16477;DHT22;8349;50.928;6.376;2023-06-22T04:42:07;20.60;99.90
16477;DHT22;8349;50.928;6.376;2023-06-22T04:44:34;20.70;99.90
16477;DHT22;8349;50.928;6.376;2023-06-22T04:47:01;20.70;99.90
16477;DHT22;8349;50.928;6.376;2023-06-22T04:49:29;20.80;99.90
16477;DHT22;8349;50.928;6.376;2023-06-22T04:52:01;20.90;99.90
16477;DHT22;8349;50.928;6.376;2023-06-22T04:54:28;20.90;99.90
16477;DHT22;8349;50.928;6.376;2023-06-22T04:56:58;20.90;99.90
16477;DHT22;8349;50.928;6.376;2023-06-22T04:59:26;20.90;99.90
16477;DHT22;8349;50.928;6.376;2023-06-22T05:01:55;20.90;99.90
16477;DHT22;8349;50.928;6.376;2023-06-22T05:04:22;20.80;99.90
16477;DHT22;8349;50.928;6.376;2023-06-22T05:06:49;20.80;99.90
16477;DHT22;8349;50.928;6.376;2023-06-22T05:09:17;20.70;99.90
16477;DHT22;8349;50.928;6.376;2023-06-22T05:11:44;20.80;99.90
16477;DHT22;8349;50.928;6.376;2023-06-22T05:14:11;20.90;99.90
16477;DHT22;8349;50.928;6.376;2023-06-22T05:16:38;21.00;99.90
16477;DHT22;8349;50.928;6.376;2023-06-22T05:19:05;21.10;99.90
16477;DHT22;8349;50.928;6.376;2023-06-22T05:21:32;21.30;99.90
16477;DHT22;8349;50.928;6.376;2023-06-22T05:23:59;21.30;99.90
16477;DHT22;8349;50.928;6.376;2023-06-22T05:26:29;21.40;99.90
16477;DHT22;8349;50.928;6.376;2023-06-22T05:28:57;21.40;99.90
16477;DHT22;8349;50.928;6.376;2023-06-22T05:31:23;21.40;99.90
16477;DHT22;8349;50.928;6.376;2023-06-22T05:33:51;21.50;99.90
16477;DHT22;8349;50.928;6.376;2023-06-22T05:36:18;21.50;99.90
16477;DHT22;8349;50.928;6.376;2023-06-22T05:38:45;21.50;99.90
16477;DHT22;8349;50.928;6.376;2023-06-22T05:41:12;21.60;99.90
16477;DHT22;8349;50.928;6.376;2023-06-22T05:43:40;21.60;99.90
16477;DHT22;8349;50.928;6.376;2023-06-22T05:46:07;21.70;99.90
16477;DHT22;8349;50.928;6.376;2023-06-22T05:48:34;21.70;99.90
16477;DHT22;8349;50.928;6.376;2023-06-22T05:51:01;21.80;99.90
16477;DHT22;8349;50.928;6.376;2023-06-22T05:53:27;21.80;99.90
16477;DHT22;8349;50.928;6.376;2023-06-22T05:55:54;21.80;99.90
16477;DHT22;8349;50.928;6.376;2023-06-22T05:58:21;21.80;99.90
16477;DHT22;8349;50.928;6.376;2023-06-22T06:00:49;21.80;99.90
16477;DHT22;8349;50.928;6.376;2023-06-22T06:03:16;21.80;99.90
16477;DHT22;8349;50.928;6.376;2023-06-22T06:05:43;21.70;99.90
16477;DHT22;8349;50.928;6.376;2023-06-22T06:08:11;21.70;99.90
16477;DHT22;8349;50.928;6.376;2023-06-22T06:10:38;21.60;99.90
16477;DHT22;8349;50.928;6.376;2023-06-22T06:13:05;21.60;99.90
16477;DHT22;8349;50.928;6.376;2023-06-22T06:15:32;21.70;99.90
16477;DHT22;8349;50.928;6.376;2023-06-22T06:18:00;21.80;99.90
16477;DHT22;8349;50.928;6.376;2023-06-22T06:20:28;21.80;99.90
16477;DHT22;8349;50.928;6.376;2023-06-22T06:22:54;21.80;99.90
16477;DHT22;8349;50.928;6.376;2023-06-22T06:25:22;21.80;99.90
16477;DHT22;8349;50.928;6.376;2023-06-22T06:27:49;21.80;99.90
16477;DHT22;8349;50.928;6.376;2023-06-22T06:30:17;21.80;99.90
16477;DHT22;8349;50.928;6.376;2023-06-22T06:32:44;21.90;99.90
16477;DHT22;8349;50.928;6.376;2023-06-22T06:35:13;21.90;99.90
16477;DHT22;8349;50.928;6.376;2023-06-22T06:37:40;21.90;99.90
16477;DHT22;8349;50.928;6.376;2023-06-22T06:40:08;22.00;99.90
16477;DHT22;8349;50.928;6.376;2023-06-22T06:42:35;22.10;99.90
16477;DHT22;8349;50.928;6.376;2023-06-22T06:45:03;22.30;99.90
16477;DHT22;8349;50.928;6.376;2023-06-22T06:47:30;22.30;99.90
16477;DHT22;8349;50.928;6.376;2023-06-22T06:49:57;22.50;99.90
16477;DHT22;8349;50.928;6.376;2023-06-22T06:52:25;22.60;99.90
16477;DHT22;8349;50.928;6.376;2023-06-22T06:54:52;22.80;99.90
16477;DHT22;8349;50.928;6.376;2023-06-22T06:57:18;22.90;99.90
16477;DHT22;8349;50.928;6.376;2023-06-22T06:59:46;23.00;99.90
16477;DHT22;8349;50.928;6.376;2023-06-22T07:02:13;23.20;99.90
16477;DHT22;8349;50.928;6.376;2023-06-22T07:04:40;23.30;99.90
16477;DHT22;8349;50.928;6.376;2023-06-22T07:07:07;23.50;99.90
16477;DHT22;8349;50.928;6.376;2023-06-22T07:09:35;23.40;99.90
16477;DHT22;8349;50.928;6.376;2023-06-22T07:12:02;23.50;99.90
16477;DHT22;8349;50.928;6.376;2023-06-22T07:14:28;23.60;99.90
16477;DHT22;8349;50.928;6.376;2023-06-22T07:16:57;23.60;99.90
16477;DHT22;8349;50.928;6.376;2023-06-22T07:19:27;23.50;99.90
16477;DHT22;8349;50.928;6.376;2023-06-22T07:21:54;23.60;99.90
16477;DHT22;8349;50.928;6.376;2023-06-22T07:24:21;23.70;99.90
16477;DHT22;8349;50.928;6.376;2023-06-22T07:26:49;23.70;99.90
16477;DHT22;8349;50.928;6.376;2023-06-22T07:29:16;23.80;99.90
16477;DHT22;8349;50.928;6.376;2023-06-22T07:31:43;23.90;99.90
16477;DHT22;8349;50.928;6.376;2023-06-22T07:34:10;24.10;99.90
16477;DHT22;8349;50.928;6.376;2023-06-22T07:36:36;24.20;99.90
16477;DHT22;8349;50.928;6.376;2023-06-22T07:39:03;24.30;99.90
16477;DHT22;8349;50.928;6.376;2023-06-22T07:41:30;24.40;99.90
16477;DHT22;8349;50.928;6.376;2023-06-22T07:43:58;24.40;99.90
16477;DHT22;8349;50.928;6.376;2023-06-22T07:46:25;24.40;99.90
16477;DHT22;8349;50.928;6.376;2023-06-22T07:48:51;24.50;99.90
16477;DHT22;8349;50.928;6.376;2023-06-22T07:51:18;24.70;99.90
16477;DHT22;8349;50.928;6.376;2023-06-22T07:53:45;24.90;99.90
16477;DHT22;8349;50.928;6.376;2023-06-22T07:56:11;25.20;99.90
16477;DHT22;8349;50.928;6.376;2023-06-22T07:58:38;25.40;99.90
16477;DHT22;8349;50.928;6.376;2023-06-22T08:01:07;25.60;99.90
16477;DHT22;8349;50.928;6.376;2023-06-22T08:03:33;25.60;99.90
16477;DHT22;8349;50.928;6.376;2023-06-22T08:06:00;25.70;99.90
16477;DHT22;8349;50.928;6.376;2023-06-22T08:08:27;25.60;99.90
16477;DHT22;8349;50.928;6.376;2023-06-22T08:10:54;25.60;99.90
16477;DHT22;8349;50.928;6.376;2023-06-22T08:13:21;25.80;99.90
16477;DHT22;8349;50.928;6.376;2023-06-22T08:15:47;26.10;99.90
16477;DHT22;8349;50.928;6.376;2023-06-22T08:18:16;26.10;99.90
16477;DHT22;8349;50.928;6.376;2023-06-22T08:20:43;26.00;99.90
16477;DHT22;8349;50.928;6.376;2023-06-22T08:23:09;25.90;99.90
16477;DHT22;8349;50.928;6.376;2023-06-22T08:25:36;26.00;99.90
16477;DHT22;8349;50.928;6.376;2023-06-22T08:28:03;26.10;99.90
16477;DHT22;8349;50.928;6.376;2023-06-22T08:30:30;26.30;99.90
16477;DHT22;8349;50.928;6.376;2023-06-22T08:32:57;26.60;99.90
16477;DHT22;8349;50.928;6.376;2023-06-22T08:35:25;26.70;99.90
16477;DHT22;8349;50.928;6.376;2023-06-22T08:37:52;26.90;99.90
16477;DHT22;8349;50.928;6.376;2023-06-22T08:40:19;26.80;99.90
16477;DHT22;8349;50.928;6.376;2023-06-22T08:42:46;26.90;99.90
16477;DHT22;8349;50.928;6.376;2023-06-22T08:45:13;27.10;99.90
16477;DHT22;8349;50.928;6.376;2023-06-22T08:47:40;27.20;99.90
16477;DHT22;8349;50.928;6.376;2023-06-22T08:50:08;27.30;99.90
16477;DHT22;8349;50.928;6.376;2023-06-22T08:52:36;27.20;99.90
16477;DHT22;8349;50.928;6.376;2023-06-22T08:55:03;27.30;99.90
16477;DHT22;8349;50.928;6.376;2023-06-22T08:57:30;27.30;99.90
16477;DHT22;8349;50.928;6.376;2023-06-22T08:59:58;27.40;99.90
16477;DHT22;8349;50.928;6.376;2023-06-22T09:02:25;27.40;99.90
16477;DHT22;8349;50.928;6.376;2023-06-22T09:04:56;27.70;99.90
16477;DHT22;8349;50.928;6.376;2023-06-22T09:07:23;27.70;99.90
16477;DHT22;8349;50.928;6.376;2023-06-22T09:09:52;27.90;99.90
16477;DHT22;8349;50.928;6.376;2023-06-22T09:12:19;27.90;99.90
16477;DHT22;8349;50.928;6.376;2023-06-22T09:14:51;28.00;99.90
16477;DHT22;8349;50.928;6.376;2023-06-22T09:17:17;28.10;99.90
16477;DHT22;8349;50.928;6.376;2023-06-22T09:19:44;28.30;99.90
16477;DHT22;8349;50.928;6.376;2023-06-22T09:22:12;28.30;99.90
16477;DHT22;8349;50.928;6.376;2023-06-22T09:24:39;28.40;99.90
16477;DHT22;8349;50.928;6.376;2023-06-22T09:27:08;28.30;99.90
16477;DHT22;8349;50.928;6.376;2023-06-22T09:29:34;28.50;99.90
16477;DHT22;8349;50.928;6.376;2023-06-22T09:32:01;28.60;99.90
16477;DHT22;8349;50.928;6.376;2023-06-22T09:34:28;28.50;99.90
16477;DHT22;8349;50.928;6.376;2023-06-22T09:36:56;28.30;99.90
16477;DHT22;8349;50.928;6.376;2023-06-22T09:39:25;28.30;99.90
16477;DHT22;8349;50.928;6.376;2023-06-22T09:41:52;28.30;99.90
16477;DHT22;8349;50.928;6.376;2023-06-22T09:44:20;28.10;99.90
16477;DHT22;8349;50.928;6.376;2023-06-22T09:46:47;28.00;99.90
16477;DHT22;8349;50.928;6.376;2023-06-22T09:49:14;27.90;99.90
16477;DHT22;8349;50.928;6.376;2023-06-22T09:51:40;27.50;99.90
16477;DHT22;8349;50.928;6.376;2023-06-22T09:54:07;27.50;99.90
16477;DHT22;8349;50.928;6.376;2023-06-22T09:56:34;27.40;99.90
16477;DHT22;8349;50.928;6.376;2023-06-22T09:59:03;27.30;99.90
16477;DHT22;8349;50.928;6.376;2023-06-22T10:01:31;27.20;99.90
16477;DHT22;8349;50.928;6.376;2023-06-22T10:03:58;27.10;99.90
16477;DHT22;8349;50.928;6.376;2023-06-22T10:06:24;27.00;99.90
16477;DHT22;8349;50.928;6.376;2023-06-22T10:08:51;26.80;99.90
16477;DHT22;8349;50.928;6.376;2023-06-22T10:11:18;26.70;99.90
16477;DHT22;8349;50.928;6.376;2023-06-22T10:13:45;26.60;99.90
16477;DHT22;8349;50.928;6.376;2023-06-22T10:16:12;26.40;99.90
16477;DHT22;8349;50.928;6.376;2023-06-22T10:18:40;26.30;99.90
16477;DHT22;8349;50.928;6.376;2023-06-22T10:21:06;26.30;99.90
16477;DHT22;8349;50.928;6.376;2023-06-22T10:23:33;26.20;99.90
16477;DHT22;8349;50.928;6.376;2023-06-22T10:26:00;26.10;99.90
16477;DHT22;8349;50.928;6.376;2023-06-22T10:28:27;25.80;99.90
16477;DHT22;8349;50.928;6.376;2023-06-22T10:30:54;25.70;99.90
16477;DHT22;8349;50.928;6.376;2023-06-22T10:33:20;25.60;99.90
16477;DHT22;8349;50.928;6.376;2023-06-22T10:38:16;25.10;99.90
16477;DHT22;8349;50.928;6.376;2023-06-22T10:40:43;25.00;99.90
16477;DHT22;8349;50.928;6.376;2023-06-22T10:43:10;25.00;99.90
16477;DHT22;8349;50.928;6.376;2023-06-22T10:45:36;24.90;99.90
16477;DHT22;8349;50.928;6.376;2023-06-22T10:48:03;24.90;99.90
16477;DHT22;8349;50.928;6.376;2023-06-22T10:50:30;24.90;99.90
16477;DHT22;8349;50.928;6.376;2023-06-22T10:52:57;24.90;99.90
16477;DHT22;8349;50.928;6.376;2023-06-22T10:55:25;24.90;99.90
16477;DHT22;8349;50.928;6.376;2023-06-22T10:57:52;24.80;99.90
16477;DHT22;8349;50.928;6.376;2023-06-22T11:00:19;24.80;99.90
16477;DHT22;8349;50.928;6.376;2023-06-22T11:02:46;24.90;99.90
16477;DHT22;8349;50.928;6.376;2023-06-22T11:05:13;24.60;99.90
16477;DHT22;8349;50.928;6.376;2023-06-22T11:07:41;24.50;99.90
16477;DHT22;8349;50.928;6.376;2023-06-22T11:10:08;24.30;99.90
16477;DHT22;8349;50.928;6.376;2023-06-22T11:12:36;24.20;99.90
16477;DHT22;8349;50.928;6.376;2023-06-22T11:15:03;24.20;99.90
16477;DHT22;8349;50.928;6.376;2023-06-22T11:17:30;24.20;99.90
16477;DHT22;8349;50.928;6.376;2023-06-22T11:19:57;24.30;99.90
16477;DHT22;8349;50.928;6.376;2023-06-22T11:22:25;24.50;99.90
16477;DHT22;8349;50.928;6.376;2023-06-22T11:24:52;25.00;99.90
16477;DHT22;8349;50.928;6.376;2023-06-22T11:27:18;25.40;99.90
16477;DHT22;8349;50.928;6.376;2023-06-22T11:29:46;25.70;99.90
16477;DHT22;8349;50.928;6.376;2023-06-22T11:32:13;26.00;99.90
16477;DHT22;8349;50.928;6.376;2023-06-22T11:34:40;26.10;99.90
16477;DHT22;8349;50.928;6.376;2023-06-22T11:37:06;26.50;99.90
16477;DHT22;8349;50.928;6.376;2023-06-22T11:39:33;26.90;99.90
16477;DHT22;8349;50.928;6.376;2023-06-22T11:41:59;26.90;99.90
16477;DHT22;8349;50.928;6.376;2023-06-22T11:44:26;27.00;99.90
16477;DHT22;8349;50.928;6.376;2023-06-22T11:46:54;26.90;99.90
16477;DHT22;8349;50.928;6.376;2023-06-22T11:49:21;27.50;99.90
16477;DHT22;8349;50.928;6.376;2023-06-22T11:51:47;28.80;99.90
16477;DHT22;8349;50.928;6.376;2023-06-22T11:54:14;29.00;99.90
16477;DHT22;8349;50.928;6.376;2023-06-22T11:56:40;28.80;99.90
16477;DHT22;8349;50.928;6.376;2023-06-22T11:59:07;28.60;99.90
16477;DHT22;8349;50.928;6.376;2023-06-22T12:01:34;28.00;99.90
16477;DHT22;8349;50.928;6.376;2023-06-22T12:04:02;27.50;99.90
16477;DHT22;8349;50.928;6.376;2023-06-22T12:06:30;27.10;99.90
16477;DHT22;8349;50.928;6.376;2023-06-22T12:08:57;26.90;99.90
16477;DHT22;8349;50.928;6.376;2023-06-22T12:11:24;26.90;99.90
16477;DHT22;8349;50.928;6.376;2023-06-22T12:13:51;26.80;99.90
16477;DHT22;8349;50.928;6.376;2023-06-22T12:16:18;26.70;99.90
16477;DHT22;8349;50.928;6.376;2023-06-22T12:18:47;26.70;99.90
16477;DHT22;8349;50.928;6.376;2023-06-22T12:21:15;26.60;99.90
16477;DHT22;8349;50.928;6.376;2023-06-22T12:23:42;26.50;99.90
16477;DHT22;8349;50.928;6.376;2023-06-22T12:26:08;26.70;99.90
16477;DHT22;8349;50.928;6.376;2023-06-22T12:28:35;26.70;99.90
16477;DHT22;8349;50.928;6.376;2023-06-22T12:31:02;26.60;99.90
16477;DHT22;8349;50.928;6.376;2023-06-22T12:33:29;26.40;99.90
16477;DHT22;8349;50.928;6.376;2023-06-22T12:35:56;26.30;99.90
16477;DHT22;8349;50.928;6.376;2023-06-22T12:38:24;26.50;99.90
16477;DHT22;8349;50.928;6.376;2023-06-22T12:40:51;26.50;99.90
16477;DHT22;8349;50.928;6.376;2023-06-22T12:43:18;26.80;99.90
16477;DHT22;8349;50.928;6.376;2023-06-22T12:45:44;26.70;99.90
16477;DHT22;8349;50.928;6.376;2023-06-22T12:48:11;26.60;99.90
16477;DHT22;8349;50.928;6.376;2023-06-22T12:50:39;26.80;99.90
16477;DHT22;8349;50.928;6.376;2023-06-22T12:53:06;26.80;99.90
16477;DHT22;8349;50.928;6.376;2023-06-22T12:55:34;26.90;99.90
16477;DHT22;8349;50.928;6.376;2023-06-22T12:58:00;26.80;99.90
16477;DHT22;8349;50.928;6.376;2023-06-22T13:00:27;26.70;99.90
16477;DHT22;8349;50.928;6.376;2023-06-22T13:02:54;26.50;99.90
16477;DHT22;8349;50.928;6.376;2023-06-22T13:05:21;26.40;99.90
16477;DHT22;8349;50.928;6.376;2023-06-22T13:07:48;26.60;99.90
16477;DHT22;8349;50.928;6.376;2023-06-22T13:10:15;26.90;99.90
16477;DHT22;8349;50.928;6.376;2023-06-22T13:12:43;27.40;99.90
16477;DHT22;8349;50.928;6.376;2023-06-22T13:15:10;27.50;99.90
16477;DHT22;8349;50.928;6.376;2023-06-22T13:17:36;27.60;99.90
16477;DHT22;8349;50.928;6.376;2023-06-22T13:20:04;27.50;99.90
16477;DHT22;8349;50.928;6.376;2023-06-22T13:22:31;27.30;99.90
16477;DHT22;8349;50.928;6.376;2023-06-22T13:24:58;26.90;99.90
16477;DHT22;8349;50.928;6.376;2023-06-22T13:27:25;26.60;99.90
16477;DHT22;8349;50.928;6.376;2023-06-22T13:29:54;26.30;99.90
16477;DHT22;8349;50.928;6.376;2023-06-22T13:32:20;26.10;99.90
16477;DHT22;8349;50.928;6.376;2023-06-22T13:34:47;25.80;99.90
16477;DHT22;8349;50.928;6.376;2023-06-22T13:37:14;25.80;99.90
16477;DHT22;8349;50.928;6.376;2023-06-22T13:39:41;25.80;99.90
16477;DHT22;8349;50.928;6.376;2023-06-22T13:42:08;25.70;99.90
16477;DHT22;8349;50.928;6.376;2023-06-22T13:44:34;25.70;99.90
16477;DHT22;8349;50.928;6.376;2023-06-22T13:47:02;25.60;99.90
16477;DHT22;8349;50.928;6.376;2023-06-22T13:49:30;25.50;99.90
16477;DHT22;8349;50.928;6.376;2023-06-22T13:51:56;25.20;99.90
16477;DHT22;8349;50.928;6.376;2023-06-22T13:54:23;25.10;99.90
16477;DHT22;8349;50.928;6.376;2023-06-22T13:56:49;24.90;99.90
16477;DHT22;8349;50.928;6.376;2023-06-22T13:59:16;24.90;99.90
16477;DHT22;8349;50.928;6.376;2023-06-22T14:01:43;24.80;99.90
16477;DHT22;8349;50.928;6.376;2023-06-22T14:04:11;24.80;99.90
16477;DHT22;8349;50.928;6.376;2023-06-22T14:06:37;24.80;99.90
16477;DHT22;8349;50.928;6.376;2023-06-22T14:09:04;24.80;99.90
16477;DHT22;8349;50.928;6.376;2023-06-22T14:11:31;24.70;99.90
16477;DHT22;8349;50.928;6.376;2023-06-22T14:13:57;24.50;99.90
16477;DHT22;8349;50.928;6.376;2023-06-22T14:19:19;24.20;99.90
16477;DHT22;8349;50.928;6.376;2023-06-22T14:21:45;24.00;99.90
16477;DHT22;8349;50.928;6.376;2023-06-22T14:24:12;24.10;99.90
16477;DHT22;8349;50.928;6.376;2023-06-22T14:26:39;24.10;99.90
16477;DHT22;8349;50.928;6.376;2023-06-22T14:29:05;24.10;99.90
16477;DHT22;8349;50.928;6.376;2023-06-22T14:31:32;24.10;99.90
16477;DHT22;8349;50.928;6.376;2023-06-22T14:33:59;24.10;99.90
16477;DHT22;8349;50.928;6.376;2023-06-22T14:36:27;23.90;99.90
16477;DHT22;8349;50.928;6.376;2023-06-22T14:38:53;23.90;99.90
16477;DHT22;8349;50.928;6.376;2023-06-22T14:41:20;23.60;99.90
16477;DHT22;8349;50.928;6.376;2023-06-22T14:43:47;23.50;99.90
16477;DHT22;8349;50.928;6.376;2023-06-22T14:46:14;23.40;99.90
16477;DHT22;8349;50.928;6.376;2023-06-22T14:48:41;23.30;99.90
16477;DHT22;8349;50.928;6.376;2023-06-22T14:51:08;23.30;99.90
16477;DHT22;8349;50.928;6.376;2023-06-22T14:53:36;23.30;99.90
16477;DHT22;8349;50.928;6.376;2023-06-22T14:56:03;23.30;99.90
16477;DHT22;8349;50.928;6.376;2023-06-22T14:58:30;23.30;99.90
16477;DHT22;8349;50.928;6.376;2023-06-22T15:00:58;23.20;99.90
16477;DHT22;8349;50.928;6.376;2023-06-22T15:03:25;23.10;99.90
16477;DHT22;8349;50.928;6.376;2023-06-22T15:05:54;23.00;99.90
16477;DHT22;8349;50.928;6.376;2023-06-22T15:08:21;22.90;99.90
16477;DHT22;8349;50.928;6.376;2023-06-22T15:10:49;22.80;99.90
16477;DHT22;8349;50.928;6.376;2023-06-22T15:13:16;22.80;99.90
16477;DHT22;8349;50.928;6.376;2023-06-22T15:15:43;22.70;99.90
16477;DHT22;8349;50.928;6.376;2023-06-22T15:18:10;22.70;99.90
16477;DHT22;8349;50.928;6.376;2023-06-22T15:20:36;22.60;99.90
16477;DHT22;8349;50.928;6.376;2023-06-22T15:23:03;22.40;99.90
16477;DHT22;8349;50.928;6.376;2023-06-22T15:25:29;22.20;99.90
16477;DHT22;8349;50.928;6.376;2023-06-22T15:27:57;22.20;99.90
16477;DHT22;8349;50.928;6.376;2023-06-22T15:30:24;22.10;99.90
16477;DHT22;8349;50.928;6.376;2023-06-22T15:32:51;21.90;99.90
16477;DHT22;8349;50.928;6.376;2023-06-22T15:35:17;21.90;99.90
16477;DHT22;8349;50.928;6.376;2023-06-22T15:37:44;21.80;99.90
16477;DHT22;8349;50.928;6.376;2023-06-22T15:40:11;21.80;99.90
16477;DHT22;8349;50.928;6.376;2023-06-22T15:42:38;21.70;99.90
16477;DHT22;8349;50.928;6.376;2023-06-22T15:45:06;21.60;99.90
16477;DHT22;8349;50.928;6.376;2023-06-22T15:47:33;21.50;99.90
16477;DHT22;8349;50.928;6.376;2023-06-22T15:49:59;21.30;99.90